Boyd, Texas
Current Conditions -  °F | °C
As of 6:55 PM on Wednesday 17 Dec 2014 (Local Time) from KLUD Reporting Station
Haze Haze  
Wind Chill: 33°   Ceiling: 400
Heat Index: 39°   Visibility: 3mi
Dew Point: 39°   Wind: 9mph
Humidity: 100%   Direction: 90°E
Pressure: 30.12"   Gusts: NA
Location:  33.08°N, 97.57°W
Report Text: KLUD 180055Z AUTO 09008KT 3SM BR OVC004 04/04 A3012 RMK AO2 P0001 T00400040
Loading
Personal Weather Stations






























Interactive Weather Map New forecast layout! Learn more

10-Day Weather Forecast

Advertisements
Track Severe Weather on mobile